sensor_id;sensor_type;location;lat;lon;timestamp;temperature;humidity
15113;DHT22;7657;50.140;7.076;2023-04-28T00:00:35;13.70;99.90
15113;DHT22;7657;50.140;7.076;2023-04-28T00:03:02;13.70;99.90
15113;DHT22;7657;50.140;7.076;2023-04-28T00:05:29;13.60;99.90
15113;DHT22;7657;50.140;7.076;2023-04-28T00:07:56;13.50;99.90
15113;DHT22;7657;50.140;7.076;2023-04-28T00:10:22;13.40;99.90
15113;DHT22;7657;50.140;7.076;2023-04-28T00:12:49;13.40;99.90
15113;DHT22;7657;50.140;7.076;2023-04-28T00:15:17;13.40;99.90
15113;DHT22;7657;50.140;7.076;2023-04-28T00:17:44;13.40;99.90
15113;DHT22;7657;50.140;7.076;2023-04-28T00:20:11;13.30;99.90
15113;DHT22;7657;50.140;7.076;2023-04-28T00:22:38;13.20;99.90
15113;DHT22;7657;50.140;7.076;2023-04-28T00:25:06;13.20;99.90
15113;DHT22;7657;50.140;7.076;2023-04-28T00:27:33;13.10;99.90
15113;DHT22;7657;50.140;7.076;2023-04-28T00:30:00;13.20;99.90
15113;DHT22;7657;50.140;7.076;2023-04-28T00:32:28;13.10;99.90
15113;DHT22;7657;50.140;7.076;2023-04-28T00:34:56;13.00;99.90
15113;DHT22;7657;50.140;7.076;2023-04-28T00:37:23;13.10;99.90
15113;DHT22;7657;50.140;7.076;2023-04-28T00:39:54;13.00;99.90
15113;DHT22;7657;50.140;7.076;2023-04-28T00:42:21;13.00;99.90
15113;DHT22;7657;50.140;7.076;2023-04-28T00:44:48;13.10;99.90
15113;DHT22;7657;50.140;7.076;2023-04-28T00:47:17;13.10;99.90
15113;DHT22;7657;50.140;7.076;2023-04-28T00:49:46;13.10;99.90
15113;DHT22;7657;50.140;7.076;2023-04-28T00:52:14;13.20;99.90
15113;DHT22;7657;50.140;7.076;2023-04-28T00:54:41;13.10;99.90
15113;DHT22;7657;50.140;7.076;2023-04-28T00:57:09;13.00;99.90
15113;DHT22;7657;50.140;7.076;2023-04-28T00:59:36;13.00;99.90
15113;DHT22;7657;50.140;7.076;2023-04-28T01:02:03;12.90;99.90
15113;DHT22;7657;50.140;7.076;2023-04-28T01:04:31;12.90;99.90
15113;DHT22;7657;50.140;7.076;2023-04-28T01:07:00;12.90;99.90
15113;DHT22;7657;50.140;7.076;2023-04-28T01:09:28;12.90;99.90
15113;DHT22;7657;50.140;7.076;2023-04-28T01:11:55;12.90;99.90
15113;DHT22;7657;50.140;7.076;2023-04-28T01:14:22;12.90;99.90
15113;DHT22;7657;50.140;7.076;2023-04-28T01:16:49;13.00;99.90
15113;DHT22;7657;50.140;7.076;2023-04-28T01:19:20;13.10;99.90
15113;DHT22;7657;50.140;7.076;2023-04-28T01:21:47;13.10;99.90
15113;DHT22;7657;50.140;7.076;2023-04-28T01:24:16;13.00;99.90
15113;DHT22;7657;50.140;7.076;2023-04-28T01:26:43;13.00;99.90
15113;DHT22;7657;50.140;7.076;2023-04-28T01:29:10;13.00;99.90
15113;DHT22;7657;50.140;7.076;2023-04-28T01:31:37;13.10;99.90
15113;DHT22;7657;50.140;7.076;2023-04-28T01:34:04;13.10;99.90
15113;DHT22;7657;50.140;7.076;2023-04-28T01:36:31;13.20;99.90
15113;DHT22;7657;50.140;7.076;2023-04-28T01:38:58;13.20;99.90
15113;DHT22;7657;50.140;7.076;2023-04-28T01:41:27;13.20;99.90
15113;DHT22;7657;50.140;7.076;2023-04-28T01:44:01;13.20;99.90
15113;DHT22;7657;50.140;7.076;2023-04-28T01:46:29;13.20;99.90
15113;DHT22;7657;50.140;7.076;2023-04-28T01:48:56;13.30;99.90
15113;DHT22;7657;50.140;7.076;2023-04-28T01:51:23;13.30;99.90
15113;DHT22;7657;50.140;7.076;2023-04-28T01:53:50;13.30;99.90
15113;DHT22;7657;50.140;7.076;2023-04-28T01:56:17;13.20;99.90
15113;DHT22;7657;50.140;7.076;2023-04-28T01:58:43;13.30;99.90
15113;DHT22;7657;50.140;7.076;2023-04-28T02:01:12;13.30;99.90
15113;DHT22;7657;50.140;7.076;2023-04-28T02:03:39;13.20;99.90
15113;DHT22;7657;50.140;7.076;2023-04-28T02:06:06;13.20;99.90
15113;DHT22;7657;50.140;7.076;2023-04-28T02:08:33;13.20;99.90
15113;DHT22;7657;50.140;7.076;2023-04-28T02:11:00;13.20;99.90
15113;DHT22;7657;50.140;7.076;2023-04-28T02:13:28;13.30;99.90
15113;DHT22;7657;50.140;7.076;2023-04-28T02:15:55;13.20;99.90
15113;DHT22;7657;50.140;7.076;2023-04-28T02:18:27;13.30;99.90
15113;DHT22;7657;50.140;7.076;2023-04-28T02:20:54;13.30;99.90
15113;DHT22;7657;50.140;7.076;2023-04-28T02:23:21;13.30;99.90
15113;DHT22;7657;50.140;7.076;2023-04-28T02:25:47;13.30;99.90
15113;DHT22;7657;50.140;7.076;2023-04-28T02:28:14;13.30;99.90
15113;DHT22;7657;50.140;7.076;2023-04-28T02:30:41;13.20;99.90
15113;DHT22;7657;50.140;7.076;2023-04-28T02:33:08;13.20;99.90
15113;DHT22;7657;50.140;7.076;2023-04-28T02:35:37;13.20;99.90
15113;DHT22;7657;50.140;7.076;2023-04-28T02:38:03;13.30;99.90
15113;DHT22;7657;50.140;7.076;2023-04-28T02:40:30;13.30;99.90
15113;DHT22;7657;50.140;7.076;2023-04-28T02:42:57;13.30;99.90
15113;DHT22;7657;50.140;7.076;2023-04-28T02:45:24;13.30;99.90
15113;DHT22;7657;50.140;7.076;2023-04-28T02:47:51;13.30;99.90
15113;DHT22;7657;50.140;7.076;2023-04-28T02:50:19;13.40;99.90
15113;DHT22;7657;50.140;7.076;2023-04-28T02:52:47;13.40;99.90
15113;DHT22;7657;50.140;7.076;2023-04-28T02:55:14;13.40;99.90
15113;DHT22;7657;50.140;7.076;2023-04-28T02:57:48;13.40;99.90
15113;DHT22;7657;50.140;7.076;2023-04-28T03:00:15;13.30;99.90
15113;DHT22;7657;50.140;7.076;2023-04-28T03:02:42;13.30;99.90
15113;DHT22;7657;50.140;7.076;2023-04-28T03:05:09;13.30;99.90
15113;DHT22;7657;50.140;7.076;2023-04-28T03:07:36;13.40;99.90
15113;DHT22;7657;50.140;7.076;2023-04-28T03:10:05;13.30;99.90
15113;DHT22;7657;50.140;7.076;2023-04-28T03:12:32;13.30;99.90
15113;DHT22;7657;50.140;7.076;2023-04-28T03:14:58;13.30;99.90
15113;DHT22;7657;50.140;7.076;2023-04-28T03:17:26;13.30;99.90
15113;DHT22;7657;50.140;7.076;2023-04-28T03:19:53;13.30;99.90
15113;DHT22;7657;50.140;7.076;2023-04-28T03:22:20;13.30;99.90
15113;DHT22;7657;50.140;7.076;2023-04-28T03:24:47;13.30;99.90
15113;DHT22;7657;50.140;7.076;2023-04-28T03:27:15;13.30;99.90
15113;DHT22;7657;50.140;7.076;2023-04-28T03:29:42;13.30;99.90
15113;DHT22;7657;50.140;7.076;2023-04-28T03:32:09;13.30;99.90
15113;DHT22;7657;50.140;7.076;2023-04-28T03:34:36;13.40;99.90
15113;DHT22;7657;50.140;7.076;2023-04-28T03:37:03;13.30;99.90
15113;DHT22;7657;50.140;7.076;2023-04-28T03:39:30;13.30;99.90
15113;DHT22;7657;50.140;7.076;2023-04-28T03:41:57;13.30;99.90
15113;DHT22;7657;50.140;7.076;2023-04-28T03:44:25;13.40;99.90
15113;DHT22;7657;50.140;7.076;2023-04-28T03:46:52;13.30;99.90
15113;DHT22;7657;50.140;7.076;2023-04-28T03:49:19;13.30;99.90
15113;DHT22;7657;50.140;7.076;2023-04-28T03:51:46;13.30;99.90
15113;DHT22;7657;50.140;7.076;2023-04-28T03:54:14;13.30;99.90
15113;DHT22;7657;50.140;7.076;2023-04-28T03:56:41;13.40;99.90
15113;DHT22;7657;50.140;7.076;2023-04-28T03:59:08;13.40;99.90
15113;DHT22;7657;50.140;7.076;2023-04-28T04:01:38;13.40;99.90
15113;DHT22;7657;50.140;7.076;2023-04-28T04:04:05;13.40;99.90
15113;DHT22;7657;50.140;7.076;2023-04-28T04:06:32;13.40;99.90
15113;DHT22;7657;50.140;7.076;2023-04-28T04:08:59;13.30;99.90
15113;DHT22;7657;50.140;7.076;2023-04-28T04:11:26;13.40;99.90
15113;DHT22;7657;50.140;7.076;2023-04-28T04:13:53;13.40;99.90
15113;DHT22;7657;50.140;7.076;2023-04-28T04:16:20;13.40;99.90
15113;DHT22;7657;50.140;7.076;2023-04-28T04:18:48;13.40;99.90
15113;DHT22;7657;50.140;7.076;2023-04-28T04:21:15;13.40;99.90
15113;DHT22;7657;50.140;7.076;2023-04-28T04:23:42;13.30;99.90
15113;DHT22;7657;50.140;7.076;2023-04-28T04:26:09;13.40;99.90
15113;DHT22;7657;50.140;7.076;2023-04-28T04:28:36;13.30;99.90
15113;DHT22;7657;50.140;7.076;2023-04-28T04:31:03;13.30;99.90
15113;DHT22;7657;50.140;7.076;2023-04-28T04:33:29;13.20;99.90
15113;DHT22;7657;50.140;7.076;2023-04-28T04:35:58;13.30;99.90
15113;DHT22;7657;50.140;7.076;2023-04-28T04:38:24;13.30;99.90
15113;DHT22;7657;50.140;7.076;2023-04-28T04:40:51;13.20;99.90
15113;DHT22;7657;50.140;7.076;2023-04-28T04:43:18;13.30;99.90
15113;DHT22;7657;50.140;7.076;2023-04-28T04:45:45;13.30;99.90
15113;DHT22;7657;50.140;7.076;2023-04-28T04:48:12;13.30;99.90
15113;DHT22;7657;50.140;7.076;2023-04-28T04:50:40;13.30;99.90
15113;DHT22;7657;50.140;7.076;2023-04-28T04:53:08;13.30;99.90
15113;DHT22;7657;50.140;7.076;2023-04-28T04:55:35;13.30;99.90
15113;DHT22;7657;50.140;7.076;2023-04-28T04:58:02;13.30;99.90
15113;DHT22;7657;50.140;7.076;2023-04-28T05:00:28;13.30;99.90
15113;DHT22;7657;50.140;7.076;2023-04-28T05:02:55;13.30;99.90
15113;DHT22;7657;50.140;7.076;2023-04-28T05:05:22;13.20;99.90
15113;DHT22;7657;50.140;7.076;2023-04-28T05:07:49;13.30;99.90
15113;DHT22;7657;50.140;7.076;2023-04-28T05:10:17;13.20;99.90
15113;DHT22;7657;50.140;7.076;2023-04-28T05:12:44;13.30;99.90
15113;DHT22;7657;50.140;7.076;2023-04-28T05:15:11;13.20;99.90
15113;DHT22;7657;50.140;7.076;2023-04-28T05:17:38;13.20;99.90
15113;DHT22;7657;50.140;7.076;2023-04-28T05:20:06;13.20;99.90
15113;DHT22;7657;50.140;7.076;2023-04-28T05:22:33;13.20;99.90
15113;DHT22;7657;50.140;7.076;2023-04-28T05:25:00;13.10;99.90
15113;DHT22;7657;50.140;7.076;2023-04-28T05:27:28;13.10;99.90
15113;DHT22;7657;50.140;7.076;2023-04-28T05:29:55;13.10;99.90
15113;DHT22;7657;50.140;7.076;2023-04-28T05:32:22;13.00;99.90
15113;DHT22;7657;50.140;7.076;2023-04-28T05:34:49;13.00;99.90
15113;DHT22;7657;50.140;7.076;2023-04-28T05:37:16;13.00;99.90
15113;DHT22;7657;50.140;7.076;2023-04-28T05:39:43;13.00;99.90
15113;DHT22;7657;50.140;7.076;2023-04-28T05:42:10;13.00;99.90
15113;DHT22;7657;50.140;7.076;2023-04-28T05:44:38;13.00;99.90
15113;DHT22;7657;50.140;7.076;2023-04-28T05:47:05;13.00;99.90
15113;DHT22;7657;50.140;7.076;2023-04-28T05:49:32;13.00;99.90
15113;DHT22;7657;50.140;7.076;2023-04-28T05:51:59;12.90;99.90
15113;DHT22;7657;50.140;7.076;2023-04-28T05:54:26;12.90;99.90
15113;DHT22;7657;50.140;7.076;2023-04-28T05:56:53;12.80;99.90
15113;DHT22;7657;50.140;7.076;2023-04-28T05:59:22;12.80;99.90
15113;DHT22;7657;50.140;7.076;2023-04-28T06:01:50;12.90;99.90
15113;DHT22;7657;50.140;7.076;2023-04-28T06:04:17;12.80;99.90
15113;DHT22;7657;50.140;7.076;2023-04-28T06:06:44;12.90;99.90
15113;DHT22;7657;50.140;7.076;2023-04-28T06:09:11;12.90;99.90
15113;DHT22;7657;50.140;7.076;2023-04-28T06:11:38;13.00;99.90
15113;DHT22;7657;50.140;7.076;2023-04-28T06:14:04;13.00;99.90
15113;DHT22;7657;50.140;7.076;2023-04-28T06:16:32;12.90;99.90
15113;DHT22;7657;50.140;7.076;2023-04-28T06:19:00;13.00;99.90
15113;DHT22;7657;50.140;7.076;2023-04-28T06:21:27;13.00;99.90
15113;DHT22;7657;50.140;7.076;2023-04-28T06:23:54;13.00;99.90
15113;DHT22;7657;50.140;7.076;2023-04-28T06:26:22;13.10;99.90
15113;DHT22;7657;50.140;7.076;2023-04-28T06:28:49;13.10;99.90
15113;DHT22;7657;50.140;7.076;2023-04-28T06:31:16;13.10;99.90
15113;DHT22;7657;50.140;7.076;2023-04-28T06:33:43;13.10;99.90
15113;DHT22;7657;50.140;7.076;2023-04-28T06:36:11;13.10;99.90
15113;DHT22;7657;50.140;7.076;2023-04-28T06:38:41;13.10;99.90
15113;DHT22;7657;50.140;7.076;2023-04-28T06:41:08;13.10;99.90
15113;DHT22;7657;50.140;7.076;2023-04-28T06:43:35;13.10;99.90
15113;DHT22;7657;50.140;7.076;2023-04-28T06:46:02;13.10;99.90
15113;DHT22;7657;50.140;7.076;2023-04-28T06:48:29;13.10;99.90
15113;DHT22;7657;50.140;7.076;2023-04-28T06:50:56;13.10;99.90
15113;DHT22;7657;50.140;7.076;2023-04-28T06:53:24;13.10;99.90
15113;DHT22;7657;50.140;7.076;2023-04-28T06:55:51;13.00;99.90
15113;DHT22;7657;50.140;7.076;2023-04-28T06:58:19;13.10;99.90
15113;DHT22;7657;50.140;7.076;2023-04-28T07:00:46;13.00;99.90
15113;DHT22;7657;50.140;7.076;2023-04-28T07:03:13;12.70;99.90
15113;DHT22;7657;50.140;7.076;2023-04-28T07:05:40;12.60;99.90
15113;DHT22;7657;50.140;7.076;2023-04-28T07:08:07;12.60;99.90
15113;DHT22;7657;50.140;7.076;2023-04-28T07:10:35;12.60;99.90
15113;DHT22;7657;50.140;7.076;2023-04-28T07:13:02;12.50;99.90
15113;DHT22;7657;50.140;7.076;2023-04-28T07:15:29;12.30;99.90
15113;DHT22;7657;50.140;7.076;2023-04-28T07:17:55;12.40;99.90
15113;DHT22;7657;50.140;7.076;2023-04-28T07:20:22;12.30;99.90
15113;DHT22;7657;50.140;7.076;2023-04-28T07:22:49;12.30;99.90
15113;DHT22;7657;50.140;7.076;2023-04-28T07:25:16;12.40;99.90
15113;DHT22;7657;50.140;7.076;2023-04-28T07:27:44;12.50;99.90
15113;DHT22;7657;50.140;7.076;2023-04-28T07:30:12;12.50;99.90
15113;DHT22;7657;50.140;7.076;2023-04-28T07:32:39;12.60;99.90
15113;DHT22;7657;50.140;7.076;2023-04-28T07:35:07;12.60;99.90
15113;DHT22;7657;50.140;7.076;2023-04-28T07:37:33;12.50;99.90
15113;DHT22;7657;50.140;7.076;2023-04-28T07:40:01;12.40;99.90
15113;DHT22;7657;50.140;7.076;2023-04-28T07:42:28;12.40;99.90
15113;DHT22;7657;50.140;7.076;2023-04-28T07:44:56;12.40;99.90
15113;DHT22;7657;50.140;7.076;2023-04-28T07:47:23;12.60;99.90
15113;DHT22;7657;50.140;7.076;2023-04-28T07:49:51;12.60;99.90
15113;DHT22;7657;50.140;7.076;2023-04-28T07:52:18;12.70;99.90
15113;DHT22;7657;50.140;7.076;2023-04-28T07:54:45;12.80;99.90
15113;DHT22;7657;50.140;7.076;2023-04-28T07:57:11;12.90;99.90
15113;DHT22;7657;50.140;7.076;2023-04-28T07:59:38;13.00;99.90
15113;DHT22;7657;50.140;7.076;2023-04-28T08:02:07;13.10;99.90
15113;DHT22;7657;50.140;7.076;2023-04-28T08:04:34;13.20;99.90
15113;DHT22;7657;50.140;7.076;2023-04-28T08:07:02;13.30;99.90
15113;DHT22;7657;50.140;7.076;2023-04-28T08:09:29;13.40;99.90
15113;DHT22;7657;50.140;7.076;2023-04-28T08:11:56;13.50;99.90
15113;DHT22;7657;50.140;7.076;2023-04-28T08:14:24;13.60;99.90
15113;DHT22;7657;50.140;7.076;2023-04-28T08:16:50;13.50;99.90
15113;DHT22;7657;50.140;7.076;2023-04-28T08:19:19;13.50;99.90
15113;DHT22;7657;50.140;7.076;2023-04-28T08:21:46;13.40;99.90
15113;DHT22;7657;50.140;7.076;2023-04-28T08:24:13;13.50;99.90
15113;DHT22;7657;50.140;7.076;2023-04-28T08:26:40;13.60;99.90
15113;DHT22;7657;50.140;7.076;2023-04-28T08:29:07;13.70;99.90
15113;DHT22;7657;50.140;7.076;2023-04-28T08:31:33;13.80;99.90
15113;DHT22;7657;50.140;7.076;2023-04-28T08:34:00;13.90;99.90
15113;DHT22;7657;50.140;7.076;2023-04-28T08:36:28;13.90;99.90
15113;DHT22;7657;50.140;7.076;2023-04-28T08:38:57;13.90;99.90
15113;DHT22;7657;50.140;7.076;2023-04-28T08:41:25;14.00;99.90
15113;DHT22;7657;50.140;7.076;2023-04-28T08:43:54;14.00;99.90
15113;DHT22;7657;50.140;7.076;2023-04-28T08:46:21;14.00;99.90
15113;DHT22;7657;50.140;7.076;2023-04-28T08:48:49;14.00;99.90
15113;DHT22;7657;50.140;7.076;2023-04-28T08:51:26;14.20;99.90
15113;DHT22;7657;50.140;7.076;2023-04-28T08:53:58;14.20;99.90
15113;DHT22;7657;50.140;7.076;2023-04-28T08:56:31;14.30;99.90
15113;DHT22;7657;50.140;7.076;2023-04-28T08:59:01;14.40;99.90
15113;DHT22;7657;50.140;7.076;2023-04-28T09:01:29;14.40;99.90
15113;DHT22;7657;50.140;7.076;2023-04-28T09:03:56;14.50;99.90
15113;DHT22;7657;50.140;7.076;2023-04-28T09:06:23;14.60;99.90
15113;DHT22;7657;50.140;7.076;2023-04-28T09:08:49;14.70;99.90
15113;DHT22;7657;50.140;7.076;2023-04-28T09:11:18;14.70;99.90
15113;DHT22;7657;50.140;7.076;2023-04-28T09:13:45;14.80;99.90
15113;DHT22;7657;50.140;7.076;2023-04-28T09:16:12;14.90;99.90
15113;DHT22;7657;50.140;7.076;2023-04-28T09:18:40;14.90;99.90
15113;DHT22;7657;50.140;7.076;2023-04-28T09:21:21;15.10;99.90
15113;DHT22;7657;50.140;7.076;2023-04-28T09:23:48;15.20;99.90
15113;DHT22;7657;50.140;7.076;2023-04-28T09:26:15;15.20;99.90
15113;DHT22;7657;50.140;7.076;2023-04-28T09:28:44;15.20;99.90
15113;DHT22;7657;50.140;7.076;2023-04-28T09:31:23;15.30;99.90
15113;DHT22;7657;50.140;7.076;2023-04-28T09:33:58;15.50;99.90
15113;DHT22;7657;50.140;7.076;2023-04-28T09:36:26;15.50;99.90
15113;DHT22;7657;50.140;7.076;2023-04-28T09:38:56;15.40;99.90
15113;DHT22;7657;50.140;7.076;2023-04-28T09:41:34;15.40;99.90
15113;DHT22;7657;50.140;7.076;2023-04-28T09:44:15;15.30;99.90
15113;DHT22;7657;50.140;7.076;2023-04-28T09:46:42;15.30;99.90
15113;DHT22;7657;50.140;7.076;2023-04-28T09:49:09;15.40;99.90
15113;DHT22;7657;50.140;7.076;2023-04-28T09:51:36;15.40;99.90
15113;DHT22;7657;50.140;7.076;2023-04-28T09:54:04;15.40;99.90
15113;DHT22;7657;50.140;7.076;2023-04-28T09:56:32;15.60;99.90
15113;DHT22;7657;50.140;7.076;2023-04-28T09:59:03;15.70;99.90
15113;DHT22;7657;50.140;7.076;2023-04-28T10:01:35;15.80;99.90
15113;DHT22;7657;50.140;7.076;2023-04-28T10:04:04;16.00;99.90
15113;DHT22;7657;50.140;7.076;2023-04-28T10:06:33;16.10;99.90
15113;DHT22;7657;50.140;7.076;2023-04-28T10:09:00;16.20;99.90
15113;DHT22;7657;50.140;7.076;2023-04-28T10:11:27;16.20;99.90
15113;DHT22;7657;50.140;7.076;2023-04-28T10:13:55;16.20;99.90
15113;DHT22;7657;50.140;7.076;2023-04-28T10:16:22;16.20;99.90
15113;DHT22;7657;50.140;7.076;2023-04-28T10:18:52;16.30;99.90
15113;DHT22;7657;50.140;7.076;2023-04-28T10:21:21;16.30;99.90
15113;DHT22;7657;50.140;7.076;2023-04-28T10:24:04;16.30;99.90
15113;DHT22;7657;50.140;7.076;2023-04-28T10:27:05;16.20;99.90
15113;DHT22;7657;50.140;7.076;2023-04-28T10:29:34;16.20;99.90
15113;DHT22;7657;50.140;7.076;2023-04-28T10:32:21;16.20;99.90
15113;DHT22;7657;50.140;7.076;2023-04-28T10:35:02;16.20;99.90
15113;DHT22;7657;50.140;7.076;2023-04-28T10:38:05;16.20;99.90
15113;DHT22;7657;50.140;7.076;2023-04-28T10:40:33;16.10;99.90
15113;DHT22;7657;50.140;7.076;2023-04-28T10:43:00;16.10;99.90
15113;DHT22;7657;50.140;7.076;2023-04-28T10:45:57;16.10;99.90
15113;DHT22;7657;50.140;7.076;2023-04-28T10:48:52;16.10;99.90
15113;DHT22;7657;50.140;7.076;2023-04-28T10:51:27;16.10;99.90
15113;DHT22;7657;50.140;7.076;2023-04-28T10:54:14;16.30;99.90
15113;DHT22;7657;50.140;7.076;2023-04-28T10:57:18;16.40;99.90
15113;DHT22;7657;50.140;7.076;2023-04-28T10:59:45;16.50;99.90
15113;DHT22;7657;50.140;7.076;2023-04-28T11:02:34;16.60;99.90
15113;DHT22;7657;50.140;7.076;2023-04-28T11:05:15;16.70;99.90
15113;DHT22;7657;50.140;7.076;2023-04-28T11:11:15;16.80;99.90
15113;DHT22;7657;50.140;7.076;2023-04-28T11:13:43;16.80;99.90
15113;DHT22;7657;50.140;7.076;2023-04-28T11:16:13;16.80;99.90
15113;DHT22;7657;50.140;7.076;2023-04-28T11:18:59;17.00;99.90
15113;DHT22;7657;50.140;7.076;2023-04-28T11:21:31;17.10;99.90
15113;DHT22;7657;50.140;7.076;2023-04-28T11:23:58;17.10;99.90
15113;DHT22;7657;50.140;7.076;2023-04-28T11:26:27;17.20;99.90
15113;DHT22;7657;50.140;7.076;2023-04-28T11:28:55;17.30;99.90
15113;DHT22;7657;50.140;7.076;2023-04-28T11:31:24;17.40;99.90
15113;DHT22;7657;50.140;7.076;2023-04-28T11:33:53;17.40;99.90
15113;DHT22;7657;50.140;7.076;2023-04-28T11:36:27;17.50;99.90
15113;DHT22;7657;50.140;7.076;2023-04-28T11:38:55;17.50;99.90
15113;DHT22;7657;50.140;7.076;2023-04-28T11:41:23;17.60;99.90
15113;DHT22;7657;50.140;7.076;2023-04-28T11:43:51;17.80;99.90
15113;DHT22;7657;50.140;7.076;2023-04-28T11:46:19;17.90;99.90
15113;DHT22;7657;50.140;7.076;2023-04-28T11:48:47;17.90;99.90
15113;DHT22;7657;50.140;7.076;2023-04-28T11:51:42;18.00;99.90
15113;DHT22;7657;50.140;7.076;2023-04-28T11:54:10;17.90;99.90
15113;DHT22;7657;50.140;7.076;2023-04-28T11:56:40;17.90;99.90
15113;DHT22;7657;50.140;7.076;2023-04-28T11:59:10;17.90;99.90
15113;DHT22;7657;50.140;7.076;2023-04-28T12:01:45;18.00;99.90
15113;DHT22;7657;50.140;7.076;2023-04-28T12:04:12;18.10;99.90
15113;DHT22;7657;50.140;7.076;2023-04-28T12:06:40;18.10;99.90
15113;DHT22;7657;50.140;7.076;2023-04-28T12:09:17;18.10;99.90
15113;DHT22;7657;50.140;7.076;2023-04-28T12:11:53;18.00;99.90
15113;DHT22;7657;50.140;7.076;2023-04-28T12:14:22;17.90;99.90
15113;DHT22;7657;50.140;7.076;2023-04-28T12:16:50;17.70;99.90
15113;DHT22;7657;50.140;7.076;2023-04-28T12:19:18;17.60;99.90
15113;DHT22;7657;50.140;7.076;2023-04-28T12:21:58;17.60;99.90
15113;DHT22;7657;50.140;7.076;2023-04-28T12:24:26;17.50;99.90
15113;DHT22;7657;50.140;7.076;2023-04-28T12:26:53;17.40;99.90
15113;DHT22;7657;50.140;7.076;2023-04-28T12:29:41;17.40;99.90
15113;DHT22;7657;50.140;7.076;2023-04-28T12:32:09;17.20;99.90
15113;DHT22;7657;50.140;7.076;2023-04-28T12:34:37;17.10;99.90
15113;DHT22;7657;50.140;7.076;2023-04-28T12:37:05;16.70;99.90
15113;DHT22;7657;50.140;7.076;2023-04-28T12:39:32;16.60;99.90
15113;DHT22;7657;50.140;7.076;2023-04-28T12:42:00;16.70;99.90
15113;DHT22;7657;50.140;7.076;2023-04-28T12:44:31;16.80;99.90
15113;DHT22;7657;50.140;7.076;2023-04-28T12:47:02;16.80;99.90
15113;DHT22;7657;50.140;7.076;2023-04-28T12:49:29;16.80;99.90
15113;DHT22;7657;50.140;7.076;2023-04-28T12:51:56;16.90;99.90
15113;DHT22;7657;50.140;7.076;2023-04-28T12:54:23;16.80;99.90
15113;DHT22;7657;50.140;7.076;2023-04-28T12:56:50;16.80;99.90
15113;DHT22;7657;50.140;7.076;2023-04-28T12:59:17;16.90;99.90
15113;DHT22;7657;50.140;7.076;2023-04-28T13:01:44;17.00;99.90
15113;DHT22;7657;50.140;7.076;2023-04-28T13:04:12;17.10;99.90
15113;DHT22;7657;50.140;7.076;2023-04-28T13:06:39;17.10;99.90
15113;DHT22;7657;50.140;7.076;2023-04-28T13:09:09;17.10;99.90
15113;DHT22;7657;50.140;7.076;2023-04-28T13:11:36;17.20;99.90
15113;DHT22;7657;50.140;7.076;2023-04-28T13:14:03;17.30;99.90
15113;DHT22;7657;50.140;7.076;2023-04-28T13:16:30;17.30;99.90
15113;DHT22;7657;50.140;7.076;2023-04-28T13:18:57;17.30;99.90
15113;DHT22;7657;50.140;7.076;2023-04-28T13:21:25;17.50;99.90
15113;DHT22;7657;50.140;7.076;2023-04-28T13:23:53;17.60;99.90
15113;DHT22;7657;50.140;7.076;2023-04-28T13:26:20;17.80;99.90
15113;DHT22;7657;50.140;7.076;2023-04-28T13:28:49;17.90;99.90
15113;DHT22;7657;50.140;7.076;2023-04-28T13:31:16;18.10;99.90
15113;DHT22;7657;50.140;7.076;2023-04-28T13:33:43;18.20;99.90
15113;DHT22;7657;50.140;7.076;2023-04-28T13:36:10;18.20;99.90
15113;DHT22;7657;50.140;7.076;2023-04-28T13:38:38;18.20;99.90
15113;DHT22;7657;50.140;7.076;2023-04-28T13:41:05;18.20;99.90
15113;DHT22;7657;50.140;7.076;2023-04-28T13:43:32;18.20;99.90
15113;DHT22;7657;50.140;7.076;2023-04-28T13:45:59;18.50;99.90
15113;DHT22;7657;50.140;7.076;2023-04-28T13:48:26;18.70;99.90
15113;DHT22;7657;50.140;7.076;2023-04-28T13:50:53;19.10;99.90
15113;DHT22;7657;50.140;7.076;2023-04-28T13:53:20;19.30;99.90
15113;DHT22;7657;50.140;7.076;2023-04-28T13:55:50;19.80;99.90
15113;DHT22;7657;50.140;7.076;2023-04-28T13:58:18;20.20;99.90
15113;DHT22;7657;50.140;7.076;2023-04-28T14:00:45;20.40;99.90
15113;DHT22;7657;50.140;7.076;2023-04-28T14:03:12;20.90;99.90
15113;DHT22;7657;50.140;7.076;2023-04-28T14:05:40;21.10;99.90
15113;DHT22;7657;50.140;7.076;2023-04-28T14:08:07;20.90;99.90
15113;DHT22;7657;50.140;7.076;2023-04-28T14:10:34;20.70;99.90
15113;DHT22;7657;50.140;7.076;2023-04-28T14:13:03;21.00;99.90
15113;DHT22;7657;50.140;7.076;2023-04-28T14:15:30;21.60;99.90
15113;DHT22;7657;50.140;7.076;2023-04-28T14:17:57;21.70;99.90
15113;DHT22;7657;50.140;7.076;2023-04-28T14:20:24;21.50;99.90
15113;DHT22;7657;50.140;7.076;2023-04-28T14:22:51;21.80;99.90
15113;DHT22;7657;50.140;7.076;2023-04-28T14:25:18;22.00;99.90
15113;DHT22;7657;50.140;7.076;2023-04-28T14:27:45;22.20;99.90
15113;DHT22;7657;50.140;7.076;2023-04-28T14:30:14;22.20;99.90
15113;DHT22;7657;50.140;7.076;2023-04-28T14:32:41;22.60;99.90
15113;DHT22;7657;50.140;7.076;2023-04-28T14:35:09;22.80;99.90
15113;DHT22;7657;50.140;7.076;2023-04-28T14:37:37;22.70;99.90
15113;DHT22;7657;50.140;7.076;2023-04-28T14:40:05;23.00;99.90
15113;DHT22;7657;50.140;7.076;2023-04-28T14:42:33;23.10;99.90
15113;DHT22;7657;50.140;7.076;2023-04-28T14:45:03;23.30;99.90
15113;DHT22;7657;50.140;7.076;2023-04-28T14:47:31;23.00;99.90
15113;DHT22;7657;50.140;7.076;2023-04-28T14:49:59;22.90;99.90
15113;DHT22;7657;50.140;7.076;2023-04-28T14:52:26;23.10;99.90
15113;DHT22;7657;50.140;7.076;2023-04-28T14:54:54;23.40;99.90
15113;DHT22;7657;50.140;7.076;2023-04-28T14:57:21;23.60;99.90
15113;DHT22;7657;50.140;7.076;2023-04-28T14:59:48;23.50;99.90
15113;DHT22;7657;50.140;7.076;2023-04-28T15:02:16;23.20;99.90
15113;DHT22;7657;50.140;7.076;2023-04-28T15:04:44;22.70;99.90
15113;DHT22;7657;50.140;7.076;2023-04-28T15:07:11;22.20;99.90
15113;DHT22;7657;50.140;7.076;2023-04-28T15:09:38;21.90;99.90
15113;DHT22;7657;50.140;7.076;2023-04-28T15:12:05;21.50;99.90
15113;DHT22;7657;50.140;7.076;2023-04-28T15:14:32;21.20;99.90
15113;DHT22;7657;50.140;7.076;2023-04-28T15:16:59;20.90;99.90
15113;DHT22;7657;50.140;7.076;2023-04-28T15:19:26;20.70;99.90
15113;DHT22;7657;50.140;7.076;2023-04-28T15:21:55;20.10;99.90
15113;DHT22;7657;50.140;7.076;2023-04-28T15:24:22;20.40;99.90
15113;DHT22;7657;50.140;7.076;2023-04-28T15:26:49;21.00;99.90
15113;DHT22;7657;50.140;7.076;2023-04-28T15:29:16;21.30;99.90
15113;DHT22;7657;50.140;7.076;2023-04-28T15:31:43;21.40;99.90
15113;DHT22;7657;50.140;7.076;2023-04-28T15:34:12;21.90;99.90
15113;DHT22;7657;50.140;7.076;2023-04-28T15:36:39;22.10;99.90
15113;DHT22;7657;50.140;7.076;2023-04-28T15:39:08;22.40;99.90
15113;DHT22;7657;50.140;7.076;2023-04-28T15:41:35;22.80;99.90
15113;DHT22;7657;50.140;7.076;2023-04-28T15:44:02;23.00;99.90
15113;DHT22;7657;50.140;7.076;2023-04-28T15:46:29;23.60;99.90
15113;DHT22;7657;50.140;7.076;2023-04-28T15:48:56;23.80;99.90
15113;DHT22;7657;50.140;7.076;2023-04-28T15:51:23;24.00;99.90
15113;DHT22;7657;50.140;7.076;2023-04-28T15:53:50;23.90;99.90
15113;DHT22;7657;50.140;7.076;2023-04-28T15:56:21;23.80;99.90